Karla A — TCCR8 — position and weather

sailwx.info

Track history (hours):
 
Tides and Currents Weather Stations Pressure Air Temp Water Temp Dewpoint Dewpoint Depression Visibility Wind Speed Wind Dir Waves Ship Positions

Karla A

Last reported at 2017-Nov-18 03:43 UTC. Time now 2017-Nov-21 14:01 UTC.
Position N 35°53' E 032°39'.

Length 155 m; draft 8.8 m.

Type: Ship (hazmat cat A). MMSI: 271000744.

Date/timePositionNaut miles runAvg speedWind from/ knotsBaromVisibWave heightAir tempDewpointWater temp
2017-Nov-18 03:43N 35°53' E 032°39'310.4
2017-Nov-18 03:27N 35°53' E 032°35'510.3
2017-Nov-18 03:00N 35°53' E 032°30'510.5
2017-Nov-18 02:30N 35°52' E 032°23'510.8
2017-Nov-18 02:00N 35°52' E 032°17'611.3
2017-Nov-18 01:30N 35°52' E 032°10'611.3
2017-Nov-18 01:00N 35°52' E 032°03'611.4
2017-Nov-18 00:30N 35°53' E 031°56'1811.1
2017-Nov-17 22:54N 35°52' E 031°34'511.0
2017-Nov-17 22:28N 35°52' E 031°28'1511.0
2017-Nov-17 21:03N 35°52' E 031°09'111.3
2017-Nov-17 21:00N 35°52' E 031°08'611.2
2017-Nov-17 20:30N 35°51' E 031°01'811.1
2017-Nov-17 19:47N 35°51' E 030°51'611.0
2017-Nov-17 19:17N 35°51' E 030°44'310.8
2017-Nov-17 19:00N 35°51' E 030°41'247 9.7
2017-Nov-16 17:38N 37°23' E 025°55'110.9
2017-Nov-16 17:30N 37°24' E 025°54'510.4
2017-Nov-16 17:00N 37°29' E 025°51'510.8
2017-Nov-16 16:30N 37°34' E 025°50'611.1
2017-Nov-16 16:00N 37°40' E 025°50'  
2017-Nov-13 23:39N 40°26' E 029°00'311.3
2017-Nov-13 23:25N 40°25' E 029°04'  
Track history (hours):
 
Tides and Currents Weather Stations Pressure Air Temp Water Temp Dewpoint Dewpoint Depression Visibility Wind Speed Wind Dir Waves Ship Positions

Karla A

Last reported at 2017-Nov-18 03:43 UTC. Time now 2017-Nov-21 14:01 UTC.
Position N 35°53' E 032°39'.

Length 155 m; draft 8.8 m.

Type: Ship (hazmat cat A). MMSI: 271000744.

Date/timePositionNaut miles runAvg speedWind from/ knotsBaromVisibWave heightAir tempDewpointWater temp
2017-Nov-18 03:43N 35°53' E 032°39'310.4
2017-Nov-18 03:27N 35°53' E 032°35'510.3
2017-Nov-18 03:00N 35°53' E 032°30'510.5
2017-Nov-18 02:30N 35°52' E 032°23'510.8
2017-Nov-18 02:00N 35°52' E 032°17'611.3
2017-Nov-18 01:30N 35°52' E 032°10'611.3
2017-Nov-18 01:00N 35°52' E 032°03'611.4
2017-Nov-18 00:30N 35°53' E 031°56'1811.1
2017-Nov-17 22:54N 35°52' E 031°34'511.0
2017-Nov-17 22:28N 35°52' E 031°28'1511.0
2017-Nov-17 21:03N 35°52' E 031°09'111.3
2017-Nov-17 21:00N 35°52' E 031°08'611.2
2017-Nov-17 20:30N 35°51' E 031°01'811.1
2017-Nov-17 19:47N 35°51' E 030°51'611.0
2017-Nov-17 19:17N 35°51' E 030°44'310.8
2017-Nov-17 19:00N 35°51' E 030°41'247 9.7
2017-Nov-16 17:38N 37°23' E 025°55'110.9
2017-Nov-16 17:30N 37°24' E 025°54'510.4
2017-Nov-16 17:00N 37°29' E 025°51'510.8
2017-Nov-16 16:30N 37°34' E 025°50'611.1
2017-Nov-16 16:00N 37°40' E 025°50'  
2017-Nov-13 23:39N 40°26' E 029°00'311.3
2017-Nov-13 23:25N 40°25' E 029°04'  

Dump ship's entire track history